Time;durP1;ratioP1;P1;durP2;ratioP2;P2;SDS_P1;SDS_P2;PMS_P1;PMS_P2;Temp;Humidity;BMP_temperature;BMP_pressure;BME280_temperature;BME280_humidity;BME280_pressure;Samples;Min_cycle;Max_cycle;Signal;HPM_P1;HPM_P2
2023/07/02 00:00:16;;;;;;;0.00;0.00;;;;;;;17.24;81.32;96599.06;5051461;28;20127;-69
2023/07/02 00:02:46;;;;;;;0.00;0.00;;;;;;;17.35;80.83;96603.44;5048098;28;20037;-68
2023/07/02 00:05:14;;;;;;;0.00;0.00;;;;;;;17.37;80.52;96605.88;5051603;28;20040;-68
2023/07/02 00:07:41;;;;;;;0.05;0.05;;;;;;;17.35;80.72;96600.75;5050767;28;20492;-68
2023/07/02 00:10:10;;;;;;;0.10;0.10;;;;;;;17.29;81.02;96609.09;5051300;28;20411;-69
2023/07/02 00:12:39;;;;;;;0.10;0.10;;;;;;;17.40;80.46;96602.69;5047159;28;20037;-68
2023/07/02 00:15:07;;;;;;;0.10;0.10;;;;;;;17.34;80.50;96601.03;5048614;28;20140;-69
2023/07/02 00:17:39;;;;;;;0.00;0.00;;;;;;;17.34;80.65;96592.94;5042300;28;20033;-68
2023/07/02 00:20:14;;;;;;;0.00;0.00;;;;;;;17.42;80.18;96600.53;5043513;28;20053;-67
2023/07/02 00:22:45;;;;;;;0.00;0.00;;;;;;;17.38;80.40;96604.81;5051074;28;20044;-68
2023/07/02 00:25:14;;;;;;;0.10;0.10;;;;;;;17.39;80.45;96598.34;5050622;28;20497;-68
2023/07/02 00:27:43;;;;;;;0.10;0.10;;;;;;;17.41;80.36;96604.31;5043934;28;20040;-68
2023/07/02 00:30:11;;;;;;;0.10;0.10;;;;;;;17.34;80.43;96596.44;5050575;28;20143;-68
2023/07/02 00:32:38;;;;;;;0.10;0.10;;;;;;;17.32;80.60;96600.47;5048276;28;20041;-68
2023/07/02 00:35:07;;;;;;;0.03;0.03;;;;;;;17.37;80.58;96605.88;5046706;28;20492;-68
2023/07/02 00:37:35;;;;;;;0.10;0.10;;;;;;;17.38;80.58;96602.13;5047911;28;20037;-68
2023/07/02 00:40:03;;;;;;;0.13;0.13;;;;;;;17.40;80.45;96605.38;5044263;28;20069;-68
2023/07/02 00:42:31;;;;;;;0.00;0.00;;;;;;;17.46;80.14;96598.91;5047456;28;20063;-68
2023/07/02 00:45:02;;;;;;;0.00;0.00;;;;;;;17.42;80.10;96598.66;5051533;28;20041;-68
2023/07/02 00:47:31;;;;;;;0.10;0.10;;;;;;;17.50;80.32;96603.53;5045296;28;20072;-68
2023/07/02 00:49:58;;;;;;;0.03;0.03;;;;;;;17.46;79.86;96605.13;5051544;28;20369;-68
2023/07/02 00:52:27;;;;;;;0.00;0.00;;;;;;;17.48;79.99;96612.97;5048996;28;20038;-70
2023/07/02 00:54:55;;;;;;;0.10;0.10;;;;;;;17.50;79.90;96608.13;5045828;28;20040;-68
2023/07/02 00:57:22;;;;;;;0.10;0.10;;;;;;;17.49;79.75;96607.31;5047128;28;20056;-70
2023/07/02 00:59:51;;;;;;;0.10;0.10;;;;;;;17.54;79.75;96614.63;5049533;28;20053;-68
2023/07/02 01:02:20;;;;;;;0.00;0.00;;;;;;;17.49;79.77;96611.88;5049764;28;20049;-67
2023/07/02 01:04:49;;;;;;;0.10;0.10;;;;;;;17.52;79.92;96612.19;5050582;28;20073;-68
2023/07/02 01:07:18;;;;;;;0.10;0.10;;;;;;;17.51;79.93;96607.03;5040454;28;20116;-68
2023/07/02 01:09:45;;;;;;;0.10;0.10;;;;;;;17.52;79.66;96603.28;5043701;28;20049;-68
2023/07/02 01:12:14;;;;;;;0.00;0.00;;;;;;;17.50;79.74;96610.81;5046802;28;20037;-68
2023/07/02 01:14:43;;;;;;;0.15;0.15;;;;;;;17.50;79.71;96610.81;5052367;28;20227;-68
2023/07/02 01:17:11;;;;;;;0.08;0.08;;;;;;;17.49;79.78;96606.50;5050354;28;20040;-68
2023/07/02 01:19:43;;;;;;;0.10;0.10;;;;;;;17.55;79.52;96606.25;5053252;28;20486;-68
2023/07/02 01:22:10;;;;;;;0.05;0.05;;;;;;;17.56;79.77;96594.38;5053517;28;20067;-69
2023/07/02 01:24:40;;;;;;;0.10;0.10;;;;;;;17.51;79.77;96590.84;5051008;28;20148;-69
2023/07/02 01:27:07;;;;;;;0.10;0.10;;;;;;;17.48;79.78;96586.78;5052888;28;20071;-68
2023/07/02 01:29:36;;;;;;;0.00;0.00;;;;;;;17.49;79.68;96593.81;5052357;28;20049;-68
2023/07/02 01:32:04;;;;;;;0.00;0.00;;;;;;;17.56;79.91;96590.88;5054671;28;20053;-67
2023/07/02 01:34:32;;;;;;;0.00;0.00;;;;;;;17.52;79.91;96589.78;5047447;28;20044;-68
2023/07/02 01:37:02;;;;;;;0.05;0.05;;;;;;;17.51;79.60;96590.84;5044407;28;20061;-68
2023/07/02 01:39:29;;;;;;;0.03;0.03;;;;;;;17.55;79.79;96595.44;5052074;28;20507;-70
2023/07/02 01:42:08;;;;;;;0.10;0.10;;;;;;;17.58;79.41;96596.81;5050676;28;20052;-68
2023/07/02 01:44:36;;;;;;;0.00;0.00;;;;;;;17.50;79.66;96600.84;5052725;28;20048;-68
2023/07/02 01:47:04;;;;;;;0.10;0.10;;;;;;;17.51;79.66;96599.75;5054374;28;20052;-70
2023/07/02 01:49:32;;;;;;;0.00;0.00;;;;;;;17.49;79.51;96601.91;5053488;28;20048;-67
2023/07/02 01:52:01;;;;;;;0.00;0.00;;;;;;;17.41;79.71;96594.31;5054217;28;20045;-67
2023/07/02 01:54:29;;;;;;;0.00;0.00;;;;;;;17.44;79.82;96601.09;5047246;28;20064;-68
2023/07/02 01:56:57;;;;;;;0.00;0.00;;;;;;;17.43;79.84;96607.56;5052815;28;20098;-67
2023/07/02 01:59:25;;;;;;;0.10;0.10;;;;;;;17.41;79.70;96598.91;5051935;28;20819;-68
2023/07/02 02:01:52;;;;;;;0.00;0.00;;;;;;;17.46;79.44;96607.81;5054144;28;20056;-68
2023/07/02 02:04:20;;;;;;;0.10;0.10;;;;;;;17.35;80.16;96614.25;5054415;28;20115;-70
2023/07/02 02:06:48;;;;;;;0.10;0.10;;;;;;;17.57;80.38;96617.59;5055363;28;20056;-74
2023/07/02 02:09:17;;;;;;;0.10;0.10;;;;;;;17.48;81.30;96623.75;5055708;28;20049;-70
2023/07/02 02:11:46;;;;;;;0.00;0.00;;;;;;;17.25;81.89;96619.56;5053894;28;20045;-69
2023/07/02 02:14:14;;;;;;;0.00;0.00;;;;;;;17.23;82.26;96616.34;5054015;28;20124;-69
2023/07/02 02:16:45;;;;;;;0.50;0.50;;;;;;;17.16;82.66;96616.56;5048192;28;20568;-69
2023/07/02 02:19:14;;;;;;;0.00;0.00;;;;;;;17.03;83.86;96627.78;5050844;28;20095;-69
2023/07/02 02:21:42;;;;;;;0.10;0.10;;;;;;;16.98;84.35;96624.25;5060607;28;20041;-75
2023/07/02 02:24:10;;;;;;;0.10;0.10;;;;;;;16.93;85.21;96622.34;5054132;28;20148;-70
2023/07/02 02:26:39;;;;;;;0.00;0.00;;;;;;;16.84;85.59;96626.59;5053581;28;20118;-70
2023/07/02 02:29:06;;;;;;;0.13;0.13;;;;;;;16.90;86.01;96625.56;5044454;28;20500;-71
2023/07/02 02:31:34;;;;;;;0.10;0.10;;;;;;;16.80;86.22;96628.19;5053035;28;20128;-72
2023/07/02 02:34:02;;;;;;;0.00;0.00;;;;;;;16.76;86.02;96627.06;5051105;28;20045;-70
2023/07/02 02:36:30;;;;;;;0.10;0.10;;;;;;;16.63;86.54;96627.50;5050738;28;20103;-76
2023/07/02 02:38:57;;;;;;;0.10;0.10;;;;;;;16.68;86.38;96622.16;5052429;28;20499;-70
2023/07/02 02:41:26;;;;;;;0.03;0.03;;;;;;;16.65;85.96;96631.56;5050630;28;20067;-72
2023/07/02 02:43:55;;;;;;;0.00;0.00;;;;;;;16.64;86.32;96623.72;5046019;28;20094;-74
2023/07/02 02:46:23;;;;;;;0.10;0.10;;;;;;;16.61;85.64;96626.91;5053737;28;20485;-71
2023/07/02 02:48:52;;;;;;;0.00;0.00;;;;;;;16.56;84.54;96629.56;5050174;28;20071;-74
2023/07/02 02:51:20;;;;;;;0.10;0.10;;;;;;;16.49;85.53;96624.41;5052100;28;20499;-71
2023/07/02 02:53:47;;;;;;;0.00;0.00;;;;;;;16.50;84.75;96620.63;5051986;28;20477;-71
2023/07/02 02:56:15;;;;;;;0.08;0.08;;;;;;;16.53;84.57;96617.41;5048783;28;20123;-72
2023/07/02 02:58:43;;;;;;;0.20;0.20;;;;;;;16.67;83.31;96626.72;5051250;28;20133;-70
2023/07/02 03:01:11;;;;;;;0.10;0.10;;;;;;;16.73;83.79;96619.47;5053931;28;20131;-71
2023/07/02 03:03:45;;;;;;;0.00;0.00;;;;;;;16.75;84.01;96630.81;5051932;28;20045;-70
2023/07/02 03:06:14;;;;;;;0.20;0.20;;;;;;;16.81;83.81;96627.94;5053225;28;20045;-71
2023/07/02 03:08:42;;;;;;;0.10;0.10;;;;;;;16.73;83.24;96627.56;5051623;28;20516;-70
2023/07/02 03:11:09;;;;;;;0.10;0.10;;;;;;;16.80;83.56;96620.91;5051814;28;20412;-71
2023/07/02 03:13:37;;;;;;;0.10;0.10;;;;;;;16.77;82.50;96624.13;5048373;28;20037;-71
2023/07/02 03:16:05;;;;;;;0.10;0.10;;;;;;;16.73;82.67;96638.34;5049936;28;20048;-71
2023/07/02 03:18:34;;;;;;;0.20;0.20;;;;;;;16.69;83.13;96631.88;5058784;28;20051;-72
2023/07/02 03:21:02;;;;;;;0.00;0.00;;;;;;;16.66;83.10;96637.75;5052747;28;20060;-68
2023/07/02 03:23:29;;;;;;;0.10;0.10;;;;;;;16.61;82.85;96635.00;5052607;28;20045;-73
2023/07/02 03:25:57;;;;;;;0.00;0.00;;;;;;;16.65;81.83;96634.25;5047294;28;20041;-71
2023/07/02 03:28:24;;;;;;;0.10;0.10;;;;;;;16.64;82.24;96639.91;5051295;28;20500;-73
2023/07/02 03:30:52;;;;;;;0.00;0.00;;;;;;;16.55;82.17;96630.63;5052479;28;20049;-72
2023/07/02 03:33:20;;;;;;;0.00;0.00;;;;;;;16.51;81.77;96641.09;5051873;28;20105;-71
2023/07/02 03:35:48;;;;;;;0.10;0.10;;;;;;;16.50;81.84;96637.63;5045828;28;20048;-71
2023/07/02 03:38:16;;;;;;;0.00;0.00;;;;;;;16.48;82.61;96641.63;5051486;28;20515;-74
2023/07/02 03:40:43;;;;;;;0.00;0.00;;;;;;;16.46;82.66;96647.25;5059553;28;20056;-71
2023/07/02 03:43:11;;;;;;;0.10;0.10;;;;;;;16.49;82.65;96637.88;5052391;28;20051;-71
2023/07/02 03:45:39;;;;;;;0.10;0.10;;;;;;;16.44;82.04;96645.88;5051313;28;20119;-71
2023/07/02 03:48:06;;;;;;;0.03;0.03;;;;;;;16.42;82.20;96638.06;5052180;28;20045;-74
2023/07/02 03:50:34;;;;;;;0.30;0.30;;;;;;;16.44;82.48;96652.09;5049183;28;20577;-72
2023/07/02 03:53:03;;;;;;;0.00;0.00;;;;;;;16.49;82.63;96638.69;5051931;28;20049;-71
2023/07/02 03:55:31;;;;;;;0.10;0.10;;;;;;;16.51;82.17;96649.16;5049639;28;20060;-72
2023/07/02 03:57:59;;;;;;;0.10;0.10;;;;;;;16.49;82.21;96651.34;5051383;28;20040;-71
2023/07/02 04:00:26;;;;;;;0.03;0.03;;;;;;;16.59;82.24;96656.00;5045670;28;20068;-74
2023/07/02 04:02:54;;;;;;;0.10;0.10;;;;;;;16.51;82.01;96658.06;5051853;28;20052;-70
2023/07/02 04:05:22;;;;;;;0.10;0.10;;;;;;;16.47;82.07;96659.66;5051377;28;20076;-70
2023/07/02 04:07:49;;;;;;;0.00;0.00;;;;;;;16.46;81.68;96665.31;5047422;28;20087;-71
2023/07/02 04:10:18;;;;;;;0.10;0.10;;;;;;;16.47;81.96;96665.06;5048570;28;20049;-75
2023/07/02 04:12:46;;;;;;;0.10;0.10;;;;;;;16.47;81.68;96666.94;5054985;28;20116;-70
2023/07/02 04:15:13;;;;;;;0.10;0.10;;;;;;;16.48;82.26;96668.56;5043305;28;20049;-71
2023/07/02 04:17:41;;;;;;;0.32;0.32;;;;;;;16.58;82.24;96678.63;5050704;28;20651;-70
2023/07/02 04:20:10;;;;;;;0.20;0.20;;;;;;;16.67;82.48;96680.63;5051492;28;20044;-71
2023/07/02 04:22:38;;;;;;;0.10;0.10;;;;;;;16.68;82.08;96682.25;5047591;28;20041;-70
2023/07/02 04:25:06;;;;;;;0.00;0.00;;;;;;;16.70;82.17;96688.22;5049827;28;20044;-74
2023/07/02 04:27:56;;;;;;;0.10;0.10;;;;;;;16.60;82.03;96689.97;5047924;28;20091;-72
2023/07/02 04:30:24;;;;;;;0.10;0.10;;;;;;;16.60;81.74;96693.47;5051212;28;20056;-71
2023/07/02 04:32:52;;;;;;;0.10;0.10;;;;;;;16.50;82.36;96696.06;5045561;28;20049;-71
2023/07/02 04:35:20;;;;;;;0.00;0.00;;;;;;;16.53;82.40;96701.75;5048577;28;20049;-72
2023/07/02 04:37:47;;;;;;;0.10;0.10;;;;;;;16.53;81.92;96700.94;5049560;28;20043;-70
2023/07/02 04:40:15;;;;;;;0.08;0.08;;;;;;;16.47;82.11;96710.03;5050965;28;20385;-71
2023/07/02 04:42:46;;;;;;;0.10;0.10;;;;;;;16.50;82.49;96720.31;5051331;28;20048;-72
2023/07/02 04:45:16;;;;;;;0.10;0.10;;;;;;;16.43;82.54;96719.69;5046342;28;20514;-71
2023/07/02 04:47:45;;;;;;;0.00;0.00;;;;;;;16.55;82.32;96714.16;5049302;28;20041;-71
2023/07/02 04:50:12;;;;;;;0.10;0.10;;;;;;;16.38;81.91;96717.75;5051171;28;20511;-70
2023/07/02 04:52:40;;;;;;;0.00;0.00;;;;;;;16.40;82.11;96718.28;5051256;28;20041;-71
2023/07/02 04:55:08;;;;;;;0.00;0.00;;;;;;;16.39;82.43;96724.78;5046845;28;20112;-71
2023/07/02 04:57:36;;;;;;;0.10;0.10;;;;;;;16.38;82.41;96716.94;5049360;28;20045;-70
2023/07/02 05:00:05;;;;;;;0.10;0.10;;;;;;;16.51;82.21;96721.91;5050998;28;20040;-70
2023/07/02 05:02:35;;;;;;;0.10;0.10;;;;;;;16.62;81.27;96726.38;5050406;28;20033;-71
2023/07/02 05:05:03;;;;;;;0.00;0.00;;;;;;;16.71;81.79;96718.66;5051151;28;20052;-71
2023/07/02 05:07:31;;;;;;;0.00;0.00;;;;;;;16.68;81.93;96724.56;5048584;28;20041;-73
2023/07/02 05:09:58;;;;;;;0.10;0.10;;;;;;;16.63;81.92;96729.88;5050784;28;20053;-71
2023/07/02 05:12:26;;;;;;;0.10;0.10;;;;;;;16.56;81.88;96734.63;5048684;28;20151;-70
2023/07/02 05:14:53;;;;;;;0.00;0.00;;;;;;;16.55;81.39;96730.31;5051056;28;20095;-70
2023/07/02 05:17:21;;;;;;;0.10;0.10;;;;;;;16.67;80.36;96728.31;5047861;28;20037;-71
2023/07/02 05:19:50;;;;;;;0.10;0.10;;;;;;;16.64;80.23;96737.72;5050615;28;20497;-70
2023/07/02 05:22:17;;;;;;;0.20;0.20;;;;;;;16.66;80.21;96734.78;5050062;28;20048;-71
2023/07/02 05:24:47;;;;;;;0.10;0.10;;;;;;;16.71;80.58;96751.00;5048681;28;20380;-72
2023/07/02 05:27:14;;;;;;;0.03;0.03;;;;;;;16.78;80.46;96751.59;5050969;28;20041;-72
2023/07/02 05:29:42;;;;;;;0.03;0.03;;;;;;;16.90;80.39;96737.97;5048638;28;20400;-71
2023/07/02 05:32:09;;;;;;;0.13;0.13;;;;;;;16.92;80.13;96738.53;5051717;28;20060;-74
2023/07/02 05:34:37;;;;;;;0.10;0.10;;;;;;;17.00;79.97;96741.56;5045182;28;20411;-72
2023/07/02 05:37:06;;;;;;;0.10;0.10;;;;;;;16.95;79.36;96738.00;5044005;28;20051;-71
2023/07/02 05:39:34;;;;;;;0.13;0.13;;;;;;;16.86;79.35;96735.78;5051352;28;20045;-72
2023/07/02 05:42:02;;;;;;;0.10;0.10;;;;;;;16.83;79.07;96735.47;5051765;28;20045;-71
2023/07/02 05:44:29;;;;;;;0.03;0.03;;;;;;;16.84;79.60;96737.09;5050030;28;20037;-70
2023/07/02 05:46:57;;;;;;;0.10;0.10;;;;;;;16.81;79.36;96737.63;5051043;28;20437;-71
2023/07/02 05:49:26;;;;;;;0.00;0.00;;;;;;;16.79;79.18;96723.59;5050294;28;20040;-71
2023/07/02 05:51:53;;;;;;;0.10;0.10;;;;;;;16.82;79.04;96734.66;5052720;28;20041;-70
2023/07/02 05:54:22;;;;;;;0.13;0.13;;;;;;;16.82;78.53;96729.25;5050974;28;20454;-71
2023/07/02 05:56:50;;;;;;;0.00;0.00;;;;;;;16.96;78.57;96745.84;5050685;28;20041;-70
2023/07/02 05:59:19;;;;;;;0.00;0.00;;;;;;;17.02;78.34;96738.63;5050820;28;20041;-71
2023/07/02 06:01:46;;;;;;;0.10;0.10;;;;;;;17.06;78.48;96750.50;5053611;28;20037;-74
2023/07/02 06:04:14;;;;;;;0.00;0.00;;;;;;;17.17;78.37;96744.94;5054216;28;20055;-70
2023/07/02 06:06:42;;;;;;;0.10;0.10;;;;;;;17.30;78.36;96748.28;5053706;28;20045;-71
2023/07/02 06:09:09;;;;;;;0.10;0.10;;;;;;;17.45;78.24;96745.69;5052173;28;20037;-71
2023/07/02 06:11:38;;;;;;;0.10;0.10;;;;;;;17.55;77.55;96748.44;5051760;28;20134;-73
2023/07/02 06:14:06;;;;;;;0.05;0.05;;;;;;;17.57;77.78;96749.00;5053394;28;20049;-74
2023/07/02 06:16:34;;;;;;;0.00;0.00;;;;;;;17.66;77.35;96754.75;5052646;28;20041;-70
2023/07/02 06:19:01;;;;;;;0.10;0.10;;;;;;;17.67;77.29;96751.81;5056576;28;20051;-71
2023/07/02 06:21:30;;;;;;;0.00;0.00;;;;;;;17.72;76.82;96751.84;5053670;28;20037;-71
2023/07/02 06:23:58;;;;;;;0.08;0.08;;;;;;;17.70;75.55;96753.19;5053585;28;20045;-70
2023/07/02 06:26:26;;;;;;;0.00;0.00;;;;;;;17.63;74.09;96761.50;5051889;28;20041;-71
2023/07/02 06:28:55;;;;;;;0.10;0.10;;;;;;;17.67;74.56;96761.78;5051168;28;20045;-72
2023/07/02 06:31:22;;;;;;;0.13;0.13;;;;;;;17.72;74.00;96751.03;5059115;28;20049;-73
2023/07/02 06:33:50;;;;;;;0.10;0.10;;;;;;;17.72;73.44;96757.25;5052194;28;20492;-71
2023/07/02 06:36:17;;;;;;;0.10;0.10;;;;;;;17.56;73.09;96768.97;5050340;28;20420;-73
2023/07/02 06:38:45;;;;;;;0.10;0.10;;;;;;;17.54;73.13;96760.34;5051237;28;20044;-70
2023/07/02 06:41:12;;;;;;;0.10;0.10;;;;;;;17.51;73.07;96769.75;5053413;28;20051;-70
2023/07/02 06:43:42;;;;;;;0.10;0.10;;;;;;;17.35;72.68;96767.19;5052573;28;20128;-71
2023/07/02 06:46:12;;;;;;;0.20;0.20;;;;;;;17.38;72.61;96772.09;5046786;28;20045;-74
2023/07/02 06:48:40;;;;;;;0.00;0.00;;;;;;;17.36;73.13;96772.34;5051761;28;20056;-73
2023/07/02 06:51:14;;;;;;;0.00;0.00;;;;;;;17.43;72.42;96777.53;5052254;28;20036;-73
2023/07/02 06:53:42;;;;;;;0.10;0.10;;;;;;;17.37;71.95;96783.94;5046904;28;20402;-73
2023/07/02 06:56:10;;;;;;;0.10;0.10;;;;;;;17.39;72.28;96776.41;5055620;28;20339;-70
2023/07/02 06:58:37;;;;;;;0.00;0.00;;;;;;;17.44;72.29;96784.56;5051978;28;20040;-72
2023/07/02 07:01:05;;;;;;;0.00;0.00;;;;;;;17.50;72.32;96778.94;5060615;28;20055;-71
2023/07/02 07:03:34;;;;;;;0.05;0.05;;;;;;;17.56;71.56;96782.47;5068883;28;20067;-72
2023/07/02 07:06:02;;;;;;;0.00;0.00;;;;;;;17.49;71.88;96784.59;5050781;28;20119;-69
2023/07/02 07:08:29;;;;;;;0.10;0.10;;;;;;;17.48;72.36;96786.47;5051929;28;20040;-69
2023/07/02 07:10:57;;;;;;;0.00;0.00;;;;;;;17.60;70.92;96783.59;5053633;28;20087;-69
2023/07/02 07:13:25;;;;;;;0.00;0.00;;;;;;;17.76;69.92;96781.81;5056513;28;20396;-71
2023/07/02 07:15:52;;;;;;;0.03;0.03;;;;;;;17.76;69.63;96777.22;5052533;28;20049;-69
2023/07/02 07:18:20;;;;;;;0.10;0.10;;;;;;;17.67;69.81;96778.81;5056329;28;20430;-69
2023/07/02 07:20:49;;;;;;;0.10;0.10;;;;;;;17.81;68.12;96777.28;5060118;28;20041;-70
2023/07/02 07:23:17;;;;;;;0.17;0.17;;;;;;;17.98;68.23;96777.91;5048473;28;20060;-71
2023/07/02 07:25:45;;;;;;;0.10;0.10;;;;;;;18.07;67.81;96772.81;5054197;28;20132;-71
2023/07/02 07:28:15;;;;;;;0.10;0.10;;;;;;;18.07;67.93;96783.63;5051943;28;20048;-68
2023/07/02 07:30:43;;;;;;;0.10;0.10;;;;;;;18.31;67.26;96776.72;5059532;28;20040;-68
2023/07/02 07:33:10;;;;;;;0.00;0.00;;;;;;;18.33;65.76;96773.78;5050421;28;20045;-71
2023/07/02 07:35:38;;;;;;;0.00;0.00;;;;;;;18.37;65.04;96772.19;5058447;28;20419;-68
2023/07/02 07:38:07;;;;;;;0.00;0.00;;;;;;;18.20;65.59;96780.47;5060696;28;20045;-71
2023/07/02 07:40:34;;;;;;;0.10;0.10;;;;;;;18.26;67.06;96786.72;5044422;28;20037;-68
2023/07/02 07:43:02;;;;;;;0.10;0.10;;;;;;;18.26;67.84;96781.31;5051020;28;20411;-69
2023/07/02 07:45:29;;;;;;;0.10;0.10;;;;;;;18.27;67.61;96788.34;5053869;28;20052;-68
2023/07/02 07:47:57;;;;;;;0.00;0.00;;;;;;;18.38;67.29;96783.75;5049523;28;20045;-70
2023/07/02 07:50:25;;;;;;;0.00;0.00;;;;;;;18.66;67.10;96792.31;5051730;28;20049;-70
2023/07/02 07:52:52;;;;;;;0.10;0.10;;;;;;;18.98;66.45;96781.28;5051110;28;20416;-70
2023/07/02 07:55:21;;;;;;;0.00;0.00;;;;;;;18.99;64.35;96785.63;5051975;28;20048;-69
2023/07/02 07:57:49;;;;;;;0.10;0.10;;;;;;;18.68;64.36;96789.34;5050876;28;20135;-68
2023/07/02 08:00:17;;;;;;;0.00;0.00;;;;;;;18.55;64.28;96785.22;5051767;28;20048;-68
2023/07/02 08:02:46;;;;;;;0.10;0.10;;;;;;;18.51;64.49;96786.81;5049881;28;20048;-68
2023/07/02 08:05:14;;;;;;;0.00;0.00;;;;;;;18.54;65.08;96788.97;5051730;28;20044;-68
2023/07/02 08:07:41;;;;;;;0.10;0.10;;;;;;;18.51;64.43;96792.22;5054549;28;20049;-68
2023/07/02 08:10:10;;;;;;;0.10;0.10;;;;;;;18.36;65.08;96800.28;5048963;28;20488;-69
2023/07/02 08:12:39;;;;;;;0.08;0.08;;;;;;;18.24;65.18;96795.06;5054746;28;20049;-68
2023/07/02 08:15:07;;;;;;;0.10;0.10;;;;;;;18.13;65.09;96808.78;5051666;28;20056;-68
2023/07/02 08:17:35;;;;;;;0.10;0.10;;;;;;;18.14;65.57;96813.94;5052555;28;20488;-68
2023/07/02 08:20:04;;;;;;;0.00;0.00;;;;;;;18.20;65.41;96815.56;5054262;28;20119;-68
2023/07/02 08:22:32;;;;;;;0.10;0.10;;;;;;;18.02;66.00;96820.59;5049316;28;20432;-69
2023/07/02 08:24:59;;;;;;;0.00;0.00;;;;;;;18.08;66.82;96822.25;5055423;28;20048;-68
2023/07/02 08:27:27;;;;;;;0.10;0.10;;;;;;;18.25;66.17;96815.63;5050980;28;20055;-69
2023/07/02 08:29:56;;;;;;;0.00;0.00;;;;;;;18.26;65.71;96819.13;5054069;28;20041;-68
2023/07/02 08:32:23;;;;;;;0.10;0.10;;;;;;;18.27;66.44;96812.66;5049183;28;20052;-69
2023/07/02 08:34:51;;;;;;;0.10;0.10;;;;;;;18.45;65.87;96828.41;5050166;28;20048;-69
2023/07/02 08:37:19;;;;;;;0.10;0.10;;;;;;;18.55;65.08;96833.03;5050994;28;20500;-69
2023/07/02 08:39:47;;;;;;;0.10;0.10;;;;;;;18.46;65.07;96832.75;5049404;28;20131;-69
2023/07/02 08:42:14;;;;;;;0.00;0.00;;;;;;;18.52;65.40;96833.56;5048881;28;20060;-69
2023/07/02 08:44:42;;;;;;;0.03;0.03;;;;;;;18.54;65.71;96836.81;5045922;28;20045;-69
2023/07/02 08:47:11;;;;;;;0.10;0.10;;;;;;;18.43;65.44;96844.06;5052305;28;20056;-69
2023/07/02 08:49:38;;;;;;;0.00;0.00;;;;;;;18.59;65.15;96843.09;5050497;28;20546;-69
2023/07/02 08:52:07;;;;;;;0.00;0.00;;;;;;;18.69;64.13;96845.81;5053725;28;20065;-69
2023/07/02 08:54:34;;;;;;;0.00;0.00;;;;;;;18.66;63.14;96838.25;5043201;28;20056;-69
2023/07/02 08:57:05;;;;;;;0.00;0.00;;;;;;;18.63;64.22;96841.50;5048430;28;20045;-69
2023/07/02 08:59:32;;;;;;;0.00;0.00;;;;;;;18.33;63.88;96852.94;5048269;28;20041;-69
2023/07/02 09:02:00;;;;;;;0.08;0.08;;;;;;;18.33;63.80;96857.53;5051175;28;20052;-69
2023/07/02 09:04:29;;;;;;;0.10;0.10;;;;;;;18.47;64.03;96841.66;5050120;28;20594;-69
2023/07/02 09:07:06;;;;;;;0.10;0.10;;;;;;;19.09;62.36;96843.53;5050843;28;20053;-69
2023/07/02 09:09:34;;;;;;;0.03;0.03;;;;;;;19.57;60.64;96837.66;5050296;28;20397;-69
2023/07/02 09:12:02;;;;;;;0.08;0.08;;;;;;;19.79;59.58;96830.06;5050588;28;20056;-69
2023/07/02 09:14:30;;;;;;;0.00;0.00;;;;;;;19.84;58.87;96845.50;5048757;28;20044;-68
2023/07/02 09:17:05;;;;;;;0.00;0.00;;;;;;;19.89;57.20;96845.50;5051946;28;20051;-68
2023/07/02 09:19:35;;;;;;;0.10;0.10;;;;;;;19.78;57.77;96839.28;5070797;28;20459;-74
2023/07/02 09:22:03;;;;;;;0.13;0.13;;;;;;;20.00;56.95;96849.00;5052817;28;20471;-69
2023/07/02 09:24:32;;;;;;;0.00;0.00;;;;;;;19.93;57.59;96843.88;5050178;28;20548;-69
2023/07/02 09:27:01;;;;;;;0.10;0.10;;;;;;;20.43;54.88;96843.00;5050719;28;20044;-69
2023/07/02 09:29:30;;;;;;;0.00;0.00;;;;;;;20.38;54.28;96836.75;5048303;28;20037;-69
2023/07/02 09:31:58;;;;;;;0.03;0.03;;;;;;;20.64;54.73;96849.16;5055352;28;20053;-69
2023/07/02 09:34:40;;;;;;;0.10;0.10;;;;;;;20.82;53.47;96848.53;5044164;28;20041;-69
2023/07/02 09:37:08;;;;;;;0.08;0.08;;;;;;;20.73;52.11;96843.97;5059032;28;20059;-69
2023/07/02 09:39:36;;;;;;;0.03;0.03;;;;;;;20.74;52.89;96846.41;5053543;28;20040;-69
2023/07/02 09:42:06;;;;;;;0.00;0.00;;;;;;;20.94;52.90;96848.22;5058224;28;20056;-69
2023/07/02 09:44:35;;;;;;;0.00;0.00;;;;;;;21.13;52.76;96840.22;5051651;28;20139;-69
2023/07/02 09:47:04;;;;;;;0.08;0.08;;;;;;;21.20;52.14;96846.19;5056106;28;20076;-69
2023/07/02 09:49:32;;;;;;;0.10;0.10;;;;;;;21.13;53.14;96840.22;5053090;28;20098;-69
2023/07/02 09:52:02;;;;;;;0.00;0.00;;;;;;;20.91;53.56;96858.81;5052349;28;20499;-69
2023/07/02 09:54:30;;;;;;;0.10;0.10;;;;;;;20.93;52.55;96832.22;5061541;28;20051;-74
2023/07/02 09:56:58;;;;;;;0.08;0.08;;;;;;;21.14;52.62;96847.28;5052731;28;20377;-76
2023/07/02 09:59:26;;;;;;;0.08;0.08;;;;;;;21.26;50.94;96836.94;5056029;28;20121;-76
2023/07/02 10:01:54;;;;;;;0.00;0.00;;;;;;;21.01;51.59;96837.03;5048240;28;20041;-75
2023/07/02 10:04:23;;;;;;;0.00;0.00;;;;;;;20.77;50.24;96851.25;5055661;28;20041;-75
2023/07/02 10:06:52;;;;;;;0.00;0.00;;;;;;;20.68;51.50;96850.22;5049999;28;20047;-75
2023/07/02 10:09:26;;;;;;;0.20;0.20;;;;;;;20.44;51.56;96846.53;5061138;28;20719;-75
2023/07/02 10:11:53;;;;;;;0.00;0.00;;;;;;;20.55;50.88;96842.69;5048852;28;20041;-75
2023/07/02 10:14:21;;;;;;;0.10;0.10;;;;;;;20.82;50.64;96840.41;5051146;28;20411;-75
2023/07/02 10:16:50;;;;;;;0.00;0.00;;;;;;;20.99;50.57;96828.34;5056198;28;20064;-75
2023/07/02 10:19:18;;;;;;;0.00;0.00;;;;;;;20.92;51.53;96838.72;5057674;28;20067;-75
2023/07/02 10:21:46;;;;;;;0.00;0.00;;;;;;;20.79;50.71;96849.09;5059689;28;20094;-75
2023/07/02 10:24:15;;;;;;;0.00;0.00;;;;;;;20.78;51.43;96852.06;5053012;28;20049;-75
2023/07/02 10:26:55;;;;;;;0.00;0.00;;;;;;;21.14;51.03;96848.09;5060003;28;20484;-75
2023/07/02 10:29:23;;;;;;;0.00;0.00;;;;;;;21.60;50.27;96856.78;5052012;28;20051;-75
2023/07/02 10:31:52;;;;;;;0.10;0.10;;;;;;;21.81;48.92;96845.75;5055505;28;20435;-75
2023/07/02 10:34:30;;;;;;;0.00;0.00;;;;;;;21.84;49.62;96858.75;5050736;28;20119;-75
2023/07/02 10:36:58;;;;;;;;;;;;;;;22.34;47.99;96852.88;5048963;28;20501;-75
2023/07/02 10:39:26;;;;;;;0.00;0.00;;;;;;;22.07;47.55;96854.53;5053784;28;19927;-75
2023/07/02 10:42:04;;;;;;;0.00;0.00;;;;;;;21.51;48.79;96865.81;5057254;28;20140;-75
2023/07/02 10:44:32;;;;;;;0.10;0.10;;;;;;;20.99;49.15;96864.44;5050585;28;20045;-75
2023/07/02 10:47:00;;;;;;;0.00;0.00;;;;;;;21.34;49.45;96876.25;5053080;28;20056;-75
2023/07/02 10:49:32;;;;;;;0.00;0.00;;;;;;;20.91;47.84;96880.50;5052132;28;20059;-75
2023/07/02 10:52:00;;;;;;;;;;;;;;;20.81;49.62;96870.50;5055129;28;20051;-75
2023/07/02 10:54:38;;;;;;;0.00;0.00;;;;;;;21.10;49.28;96865.22;5053014;28;19928;-75
2023/07/02 10:57:08;;;;;;;0.10;0.10;;;;;;;21.27;48.23;96873.84;5056352;28;20059;-75
2023/07/02 10:59:36;;;;;;;0.10;0.10;;;;;;;21.20;46.80;96878.75;5051519;28;20496;-75
2023/07/02 11:02:04;;;;;;;0.00;0.00;;;;;;;21.06;48.23;96864.16;5049612;28;20041;-75
2023/07/02 11:04:32;;;;;;;0.10;0.10;;;;;;;21.35;48.72;96872.44;5046516;28;20040;-75
2023/07/02 11:07:00;;;;;;;0.00;0.00;;;;;;;21.33;47.44;96880.88;5048958;28;20049;-75
2023/07/02 11:09:27;;;;;;;0.00;0.00;;;;;;;21.28;46.87;96871.94;5050425;28;20103;-75
2023/07/02 11:11:56;;;;;;;0.10;0.10;;;;;;;21.60;45.93;96874.97;5055924;28;20043;-75
2023/07/02 11:14:29;;;;;;;0.00;0.00;;;;;;;21.90;45.96;96874.75;5053499;28;20055;-75
2023/07/02 11:16:58;;;;;;;0.00;0.00;;;;;;;21.58;44.89;96886.16;5053073;28;20045;-75
2023/07/02 11:19:25;;;;;;;0.00;0.00;;;;;;;21.80;46.13;96884.91;5056468;28;20073;-75
2023/07/02 11:21:55;;;;;;;0.00;0.00;;;;;;;21.59;46.14;96878.81;5052349;28;20052;-75
2023/07/02 11:24:31;;;;;;;0.03;0.03;;;;;;;22.10;46.25;96876.50;5049526;28;20439;-75
2023/07/02 11:26:59;;;;;;;0.00;0.00;;;;;;;22.48;44.00;96872.03;5051196;28;20052;-74
2023/07/02 11:29:28;;;;;;;0.00;0.00;;;;;;;22.51;45.43;96870.66;5051210;28;20116;-75
2023/07/02 11:32:05;;;;;;;0.00;0.00;;;;;;;22.67;43.23;96872.09;5055992;28;20506;-75
2023/07/02 11:34:33;;;;;;;0.00;0.00;;;;;;;22.66;43.05;96873.19;5043921;28;20045;-75
2023/07/02 11:37:00;;;;;;;0.00;0.00;;;;;;;22.34;44.44;96881.97;5056075;28;20072;-75
2023/07/02 11:39:28;;;;;;;0.00;0.00;;;;;;;22.19;44.43;96879.41;5050114;28;20413;-75